sensor_id;sensor_type;location;lat;lon;timestamp;pressure;altitude;pressure_sealevel;temperature;humidity
62025;BME280;47978;49.118;12.146;2023-10-13T00:03:41;97566.41;;;13.32;100.00
62025;BME280;47978;49.118;12.146;2023-10-13T00:07:42;97569.63;;;13.25;100.00
62025;BME280;47978;49.118;12.146;2023-10-13T00:11:44;97568.44;;;13.17;100.00
62025;BME280;47978;49.118;12.146;2023-10-13T00:15:47;97582.16;;;13.14;100.00
62025;BME280;47978;49.118;12.146;2023-10-13T00:19:49;97568.13;;;13.10;100.00
62025;BME280;47978;49.118;12.146;2023-10-13T00:23:50;97568.75;;;13.07;100.00
62025;BME280;47978;49.118;12.146;2023-10-13T00:27:51;97563.72;;;13.09;100.00
62025;BME280;47978;49.118;12.146;2023-10-13T00:31:54;97567.47;;;13.13;100.00
62025;BME280;47978;49.118;12.146;2023-10-13T00:35:56;97559.38;;;13.25;100.00
62025;BME280;47978;49.118;12.146;2023-10-13T00:39:57;97561.44;;;13.20;100.00
62025;BME280;47978;49.118;12.146;2023-10-13T00:43:58;97553.44;;;13.18;100.00
62025;BME280;47978;49.118;12.146;2023-10-13T00:48:01;97547.91;;;13.18;100.00
62025;BME280;47978;49.118;12.146;2023-10-13T00:52:03;97545.13;;;13.18;100.00
62025;BME280;47978;49.118;12.146;2023-10-13T00:56:05;97541.19;;;13.19;100.00
62025;BME280;47978;49.118;12.146;2023-10-13T01:00:07;97544.63;;;13.16;100.00
62025;BME280;47978;49.118;12.146;2023-10-13T01:04:10;97543.97;;;13.19;100.00
62025;BME280;47978;49.118;12.146;2023-10-13T01:08:12;97549.66;;;13.14;100.00
62025;BME280;47978;49.118;12.146;2023-10-13T01:12:13;97549.00;;;13.17;100.00
62025;BME280;47978;49.118;12.146;2023-10-13T01:16:14;97559.66;;;13.15;100.00
62025;BME280;47978;49.118;12.146;2023-10-13T01:20:17;97549.63;;;13.05;100.00
62025;BME280;47978;49.118;12.146;2023-10-13T01:24:20;97541.81;;;13.08;100.00
62025;BME280;47978;49.118;12.146;2023-10-13T01:28:24;97538.66;;;13.00;100.00
62025;BME280;47978;49.118;12.146;2023-10-13T01:32:26;97523.66;;;13.01;100.00
62025;BME280;47978;49.118;12.146;2023-10-13T01:36:27;97521.50;;;12.90;100.00
62025;BME280;47978;49.118;12.146;2023-10-13T01:40:30;97536.03;;;12.87;100.00
62025;BME280;47978;49.118;12.146;2023-10-13T01:44:32;97545.03;;;12.92;100.00
62025;BME280;47978;49.118;12.146;2023-10-13T01:48:33;97546.50;;;12.90;100.00
62025;BME280;47978;49.118;12.146;2023-10-13T01:52:35;97553.16;;;12.89;100.00
62025;BME280;47978;49.118;12.146;2023-10-13T01:56:37;97543.19;;;12.88;100.00
62025;BME280;47978;49.118;12.146;2023-10-13T02:00:39;97529.84;;;12.90;100.00
62025;BME280;47978;49.118;12.146;2023-10-13T02:04:40;97531.13;;;12.83;100.00
62025;BME280;47978;49.118;12.146;2023-10-13T02:08:42;97532.09;;;12.88;100.00
62025;BME280;47978;49.118;12.146;2023-10-13T02:12:45;97536.19;;;12.90;100.00
62025;BME280;47978;49.118;12.146;2023-10-13T02:16:46;97532.91;;;12.88;100.00
62025;BME280;47978;49.118;12.146;2023-10-13T02:20:48;97544.78;;;12.80;100.00
62025;BME280;47978;49.118;12.146;2023-10-13T02:24:49;97532.06;;;12.79;100.00
62025;BME280;47978;49.118;12.146;2023-10-13T02:28:52;97528.13;;;12.80;100.00
62025;BME280;47978;49.118;12.146;2023-10-13T02:32:53;97529.81;;;12.81;100.00
62025;BME280;47978;49.118;12.146;2023-10-13T02:36:55;97521.44;;;12.72;100.00
62025;BME280;47978;49.118;12.146;2023-10-13T02:40:56;97515.50;;;12.65;100.00
62025;BME280;47978;49.118;12.146;2023-10-13T02:44:59;97516.28;;;12.57;100.00
62025;BME280;47978;49.118;12.146;2023-10-13T02:49:00;97518.25;;;12.56;100.00
62025;BME280;47978;49.118;12.146;2023-10-13T02:53:02;97524.75;;;12.52;100.00
62025;BME280;47978;49.118;12.146;2023-10-13T02:57:03;97523.75;;;12.48;100.00
62025;BME280;47978;49.118;12.146;2023-10-13T03:01:07;97511.66;;;12.44;100.00
62025;BME280;47978;49.118;12.146;2023-10-13T03:05:09;97510.66;;;12.40;100.00
62025;BME280;47978;49.118;12.146;2023-10-13T03:09:10;97512.91;;;12.37;100.00
62025;BME280;47978;49.118;12.146;2023-10-13T03:13:12;97508.22;;;12.38;100.00
62025;BME280;47978;49.118;12.146;2023-10-13T03:17:14;97508.00;;;12.34;100.00
62025;BME280;47978;49.118;12.146;2023-10-13T03:21:16;97520.53;;;12.32;100.00
62025;BME280;47978;49.118;12.146;2023-10-13T03:25:17;97514.69;;;12.33;100.00
62025;BME280;47978;49.118;12.146;2023-10-13T03:29:19;97510.72;;;12.26;100.00
62025;BME280;47978;49.118;12.146;2023-10-13T03:33:22;97513.00;;;12.24;100.00
62025;BME280;47978;49.118;12.146;2023-10-13T03:37:23;97515.91;;;12.19;100.00
62025;BME280;47978;49.118;12.146;2023-10-13T03:41:25;97513.19;;;12.27;100.00
62025;BME280;47978;49.118;12.146;2023-10-13T03:45:27;97513.13;;;12.19;100.00
62025;BME280;47978;49.118;12.146;2023-10-13T03:49:29;97513.44;;;12.17;100.00
62025;BME280;47978;49.118;12.146;2023-10-13T03:53:31;97506.16;;;12.21;100.00
62025;BME280;47978;49.118;12.146;2023-10-13T03:57:33;97491.44;;;12.21;100.00
62025;BME280;47978;49.118;12.146;2023-10-13T04:01:34;97494.72;;;12.23;100.00
62025;BME280;47978;49.118;12.146;2023-10-13T04:05:37;97501.09;;;12.23;100.00
62025;BME280;47978;49.118;12.146;2023-10-13T04:09:38;97491.00;;;12.27;100.00
62025;BME280;47978;49.118;12.146;2023-10-13T04:13:40;97493.97;;;12.31;100.00
62025;BME280;47978;49.118;12.146;2023-10-13T04:17:42;97485.50;;;12.36;100.00
62025;BME280;47978;49.118;12.146;2023-10-13T04:21:44;97492.50;;;12.33;100.00
62025;BME280;47978;49.118;12.146;2023-10-13T04:25:46;97484.19;;;12.33;100.00
62025;BME280;47978;49.118;12.146;2023-10-13T04:29:47;97478.66;;;12.33;100.00
62025;BME280;47978;49.118;12.146;2023-10-13T04:33:49;97492.13;;;12.26;100.00
62025;BME280;47978;49.118;12.146;2023-10-13T04:37:51;97486.75;;;12.21;100.00
62025;BME280;47978;49.118;12.146;2023-10-13T04:41:53;97481.44;;;12.11;100.00
62025;BME280;47978;49.118;12.146;2023-10-13T04:45:58;97482.53;;;12.01;100.00
62025;BME280;47978;49.118;12.146;2023-10-13T04:49:59;97472.69;;;11.95;100.00
62025;BME280;47978;49.118;12.146;2023-10-13T04:54:02;97479.63;;;12.06;100.00
62025;BME280;47978;49.118;12.146;2023-10-13T04:58:04;97480.66;;;11.88;100.00
62025;BME280;47978;49.118;12.146;2023-10-13T05:02:05;97476.28;;;11.73;100.00
62025;BME280;47978;49.118;12.146;2023-10-13T05:06:07;97473.78;;;11.85;100.00
62025;BME280;47978;49.118;12.146;2023-10-13T05:10:10;97489.50;;;11.76;100.00
62025;BME280;47978;49.118;12.146;2023-10-13T05:14:11;97481.19;;;11.76;100.00
62025;BME280;47978;49.118;12.146;2023-10-13T05:18:12;97485.41;;;11.74;100.00
62025;BME280;47978;49.118;12.146;2023-10-13T05:22:14;97494.00;;;11.72;100.00
62025;BME280;47978;49.118;12.146;2023-10-13T05:26:17;97482.03;;;11.63;100.00
62025;BME280;47978;49.118;12.146;2023-10-13T05:30:18;97493.84;;;11.55;100.00
62025;BME280;47978;49.118;12.146;2023-10-13T05:34:19;97492.97;;;11.45;100.00
62025;BME280;47978;49.118;12.146;2023-10-13T05:38:21;97492.28;;;11.40;100.00
62025;BME280;47978;49.118;12.146;2023-10-13T05:42:23;97490.94;;;11.37;100.00
62025;BME280;47978;49.118;12.146;2023-10-13T05:46:25;97503.59;;;11.52;100.00
62025;BME280;47978;49.118;12.146;2023-10-13T05:50:27;97498.28;;;11.56;100.00
62025;BME280;47978;49.118;12.146;2023-10-13T05:54:28;97498.47;;;11.59;100.00
62025;BME280;47978;49.118;12.146;2023-10-13T05:58:31;97498.44;;;11.73;100.00
62025;BME280;47978;49.118;12.146;2023-10-13T06:02:32;97504.59;;;11.70;100.00
62025;BME280;47978;49.118;12.146;2023-10-13T06:06:34;97508.00;;;11.67;100.00
62025;BME280;47978;49.118;12.146;2023-10-13T06:10:35;97503.34;;;11.76;100.00
62025;BME280;47978;49.118;12.146;2023-10-13T06:14:38;97504.97;;;11.77;100.00
62025;BME280;47978;49.118;12.146;2023-10-13T06:18:40;97509.88;;;11.80;100.00
62025;BME280;47978;49.118;12.146;2023-10-13T06:22:41;97512.56;;;11.85;100.00
62025;BME280;47978;49.118;12.146;2023-10-13T06:26:43;97512.13;;;11.92;100.00
62025;BME280;47978;49.118;12.146;2023-10-13T06:30:54;97516.09;;;12.00;100.00
62025;BME280;47978;49.118;12.146;2023-10-13T06:34:56;97516.53;;;12.15;100.00
62025;BME280;47978;49.118;12.146;2023-10-13T06:38:57;97518.78;;;12.36;100.00
62025;BME280;47978;49.118;12.146;2023-10-13T06:42:59;97517.25;;;12.52;100.00
62025;BME280;47978;49.118;12.146;2023-10-13T06:47:01;97513.25;;;12.67;100.00
62025;BME280;47978;49.118;12.146;2023-10-13T06:51:03;97516.75;;;12.81;100.00
62025;BME280;47978;49.118;12.146;2023-10-13T06:55:04;97521.69;;;12.93;100.00
62025;BME280;47978;49.118;12.146;2023-10-13T06:59:06;97519.72;;;12.94;100.00
62025;BME280;47978;49.118;12.146;2023-10-13T07:03:09;97519.25;;;13.00;100.00
62025;BME280;47978;49.118;12.146;2023-10-13T07:07:11;97518.81;;;13.16;100.00
62025;BME280;47978;49.118;12.146;2023-10-13T07:11:12;97514.25;;;13.20;100.00
62025;BME280;47978;49.118;12.146;2023-10-13T07:15:13;97523.94;;;13.31;100.00
62025;BME280;47978;49.118;12.146;2023-10-13T07:19:16;97522.66;;;13.46;100.00
62025;BME280;47978;49.118;12.146;2023-10-13T07:23:18;97521.56;;;13.64;100.00
62025;BME280;47978;49.118;12.146;2023-10-13T07:27:20;97529.09;;;13.81;100.00
62025;BME280;47978;49.118;12.146;2023-10-13T07:31:22;97524.13;;;14.30;100.00
62025;BME280;47978;49.118;12.146;2023-10-13T07:35:24;97522.69;;;14.97;100.00
62025;BME280;47978;49.118;12.146;2023-10-13T07:39:27;97513.28;;;15.61;100.00
62025;BME280;47978;49.118;12.146;2023-10-13T07:43:29;97507.84;;;15.65;100.00
62025;BME280;47978;49.118;12.146;2023-10-13T07:47:30;97501.41;;;16.48;100.00
62025;BME280;47978;49.118;12.146;2023-10-13T07:51:33;97501.06;;;16.16;100.00
62025;BME280;47978;49.118;12.146;2023-10-13T07:55:35;97495.84;;;16.48;100.00
62025;BME280;47978;49.118;12.146;2023-10-13T07:59:36;97492.00;;;16.53;100.00
62025;BME280;47978;49.118;12.146;2023-10-13T08:03:38;97498.84;;;16.76;98.84
62025;BME280;47978;49.118;12.146;2023-10-13T08:07:40;97501.75;;;16.92;100.00
62025;BME280;47978;49.118;12.146;2023-10-13T08:11:42;97497.66;;;16.90;96.38
62025;BME280;47978;49.118;12.146;2023-10-13T08:15:43;97496.41;;;16.99;89.03
62025;BME280;47978;49.118;12.146;2023-10-13T08:19:45;97493.50;;;17.45;93.68
62025;BME280;47978;49.118;12.146;2023-10-13T08:23:49;97487.13;;;17.72;91.85
62025;BME280;47978;49.118;12.146;2023-10-13T08:27:50;97490.13;;;17.39;89.91
62025;BME280;47978;49.118;12.146;2023-10-13T08:31:52;97494.31;;;17.45;87.57
62025;BME280;47978;49.118;12.146;2023-10-13T08:35:54;97492.50;;;17.77;81.67
62025;BME280;47978;49.118;12.146;2023-10-13T08:39:57;97489.84;;;18.09;84.23
62025;BME280;47978;49.118;12.146;2023-10-13T08:44:07;97491.66;;;18.02;83.07
62025;BME280;47978;49.118;12.146;2023-10-13T08:48:10;97491.22;;;18.15;85.81
62025;BME280;47978;49.118;12.146;2023-10-13T08:52:12;97493.06;;;18.24;83.21
62025;BME280;47978;49.118;12.146;2023-10-13T08:56:18;97493.31;;;18.18;74.97
62025;BME280;47978;49.118;12.146;2023-10-13T09:00:20;97490.63;;;18.22;75.40
62025;BME280;47978;49.118;12.146;2023-10-13T09:04:21;97486.59;;;18.35;74.46
62025;BME280;47978;49.118;12.146;2023-10-13T09:08:24;97483.53;;;18.40;80.97
62025;BME280;47978;49.118;12.146;2023-10-13T09:12:28;97485.06;;;18.82;72.78
62025;BME280;47978;49.118;12.146;2023-10-13T09:16:29;97480.38;;;18.86;72.44
62025;BME280;47978;49.118;12.146;2023-10-13T09:20:31;97477.47;;;18.82;67.90
62025;BME280;47978;49.118;12.146;2023-10-13T09:24:32;97478.22;;;18.79;71.13
62025;BME280;47978;49.118;12.146;2023-10-13T09:28:38;97474.78;;;19.02;70.95
62025;BME280;47978;49.118;12.146;2023-10-13T09:32:39;97471.47;;;19.31;68.63
62025;BME280;47978;49.118;12.146;2023-10-13T09:36:41;97471.59;;;19.54;67.85
62025;BME280;47978;49.118;12.146;2023-10-13T09:40:42;97470.28;;;19.48;70.56
62025;BME280;47978;49.118;12.146;2023-10-13T09:44:46;97469.88;;;19.66;66.14
62025;BME280;47978;49.118;12.146;2023-10-13T09:48:47;97460.56;;;19.10;67.66
62025;BME280;47978;49.118;12.146;2023-10-13T09:52:50;97466.28;;;19.49;67.74
62025;BME280;47978;49.118;12.146;2023-10-13T09:56:53;97467.34;;;19.61;65.74
62025;BME280;47978;49.118;12.146;2023-10-13T10:00:57;97457.97;;;19.88;63.56
62025;BME280;47978;49.118;12.146;2023-10-13T10:05:00;97456.38;;;19.71;64.39
62025;BME280;47978;49.118;12.146;2023-10-13T10:09:05;97456.28;;;19.84;66.63
62025;BME280;47978;49.118;12.146;2023-10-13T10:13:07;97449.66;;;20.15;64.82
62025;BME280;47978;49.118;12.146;2023-10-13T10:17:15;97446.69;;;20.04;65.02
62025;BME280;47978;49.118;12.146;2023-10-13T10:21:17;97442.94;;;20.58;63.68
62025;BME280;47978;49.118;12.146;2023-10-13T10:25:28;97438.81;;;20.75;66.38
62025;BME280;47978;49.118;12.146;2023-10-13T10:29:29;97429.09;;;20.50;62.27
62025;BME280;47978;49.118;12.146;2023-10-13T10:33:32;97435.56;;;20.73;63.29
62025;BME280;47978;49.118;12.146;2023-10-13T10:37:33;97437.81;;;20.87;60.73
62025;BME280;47978;49.118;12.146;2023-10-13T10:41:35;97434.59;;;21.11;60.58
62025;BME280;47978;49.118;12.146;2023-10-13T10:45:36;97429.25;;;21.29;59.20
62025;BME280;47978;49.118;12.146;2023-10-13T10:49:39;97424.88;;;21.32;59.74
62025;BME280;47978;49.118;12.146;2023-10-13T10:53:41;97414.28;;;21.48;59.61
62025;BME280;47978;49.118;12.146;2023-10-13T10:57:43;97397.94;;;21.31;58.13
62025;BME280;47978;49.118;12.146;2023-10-13T11:01:44;97398.44;;;21.37;58.40
62025;BME280;47978;49.118;12.146;2023-10-13T11:05:47;97384.66;;;21.54;60.90
62025;BME280;47978;49.118;12.146;2023-10-13T11:09:49;97378.91;;;21.21;61.20
62025;BME280;47978;49.118;12.146;2023-10-13T11:13:50;97367.88;;;21.65;57.84
62025;BME280;47978;49.118;12.146;2023-10-13T11:17:53;97357.09;;;21.71;57.82
62025;BME280;47978;49.118;12.146;2023-10-13T11:21:55;97359.44;;;21.65;56.91
62025;BME280;47978;49.118;12.146;2023-10-13T11:25:57;97351.22;;;21.83;54.01
62025;BME280;47978;49.118;12.146;2023-10-13T11:29:59;97352.50;;;21.89;55.93
62025;BME280;47978;49.118;12.146;2023-10-13T11:34:00;97330.31;;;21.84;57.42
62025;BME280;47978;49.118;12.146;2023-10-13T11:38:03;97336.53;;;22.00;54.00
62025;BME280;47978;49.118;12.146;2023-10-13T11:42:05;97333.66;;;21.97;57.27
62025;BME280;47978;49.118;12.146;2023-10-13T11:46:06;97330.00;;;22.27;52.39
62025;BME280;47978;49.118;12.146;2023-10-13T11:50:07;97325.63;;;22.33;53.44
62025;BME280;47978;49.118;12.146;2023-10-13T11:54:10;97315.88;;;22.23;55.83
62025;BME280;47978;49.118;12.146;2023-10-13T11:58:12;97300.69;;;22.35;53.91
62025;BME280;47978;49.118;12.146;2023-10-13T12:02:16;97295.22;;;22.53;52.40
62025;BME280;47978;49.118;12.146;2023-10-13T12:06:18;97291.84;;;22.36;52.12
62025;BME280;47978;49.118;12.146;2023-10-13T12:10:21;97287.78;;;22.34;53.33
62025;BME280;47978;49.118;12.146;2023-10-13T12:14:22;97284.56;;;22.32;53.77
62025;BME280;47978;49.118;12.146;2023-10-13T12:18:24;97278.31;;;22.56;53.53
62025;BME280;47978;49.118;12.146;2023-10-13T12:22:25;97278.50;;;22.26;53.00
62025;BME280;47978;49.118;12.146;2023-10-13T12:26:28;97275.56;;;22.63;50.60
62025;BME280;47978;49.118;12.146;2023-10-13T12:30:30;97256.31;;;22.76;50.53
62025;BME280;47978;49.118;12.146;2023-10-13T12:34:31;97253.22;;;22.92;49.24
62025;BME280;47978;49.118;12.146;2023-10-13T12:38:33;97257.09;;;22.73;51.83
62025;BME280;47978;49.118;12.146;2023-10-13T12:42:36;97246.16;;;22.61;51.67
62025;BME280;47978;49.118;12.146;2023-10-13T12:46:37;97249.44;;;22.74;52.28
62025;BME280;47978;49.118;12.146;2023-10-13T12:50:39;97235.53;;;22.95;54.19
62025;BME280;47978;49.118;12.146;2023-10-13T12:54:40;97226.78;;;23.22;54.12
62025;BME280;47978;49.118;12.146;2023-10-13T12:58:43;97222.00;;;23.33;50.35
62025;BME280;47978;49.118;12.146;2023-10-13T13:02:44;97212.78;;;23.50;48.41
62025;BME280;47978;49.118;12.146;2023-10-13T13:06:46;97206.66;;;23.20;49.17
62025;BME280;47978;49.118;12.146;2023-10-13T13:10:48;97202.28;;;23.44;48.71
62025;BME280;47978;49.118;12.146;2023-10-13T13:14:51;97202.81;;;23.71;45.35
62025;BME280;47978;49.118;12.146;2023-10-13T13:18:52;97190.63;;;23.56;46.18
62025;BME280;47978;49.118;12.146;2023-10-13T13:22:54;97182.56;;;23.54;47.01
62025;BME280;47978;49.118;12.146;2023-10-13T13:26:55;97179.00;;;23.72;47.32
62025;BME280;47978;49.118;12.146;2023-10-13T13:30:58;97169.22;;;23.41;50.69
62025;BME280;47978;49.118;12.146;2023-10-13T13:35:00;97164.44;;;23.63;46.22
62025;BME280;47978;49.118;12.146;2023-10-13T13:39:02;97158.34;;;23.46;48.09
62025;BME280;47978;49.118;12.146;2023-10-13T13:43:03;97153.53;;;23.65;43.47
62025;BME280;47978;49.118;12.146;2023-10-13T13:47:06;97153.13;;;23.48;46.14
62025;BME280;47978;49.118;12.146;2023-10-13T13:51:07;97155.09;;;23.37;47.76
62025;BME280;47978;49.118;12.146;2023-10-13T13:55:09;97145.34;;;23.13;48.54
62025;BME280;47978;49.118;12.146;2023-10-13T13:59:11;97136.88;;;23.17;48.49
62025;BME280;47978;49.118;12.146;2023-10-13T14:03:13;97139.31;;;22.38;53.23
62025;BME280;47978;49.118;12.146;2023-10-13T14:07:15;97127.69;;;22.47;50.00
62025;BME280;47978;49.118;12.146;2023-10-13T14:11:17;97129.00;;;22.60;51.05
62025;BME280;47978;49.118;12.146;2023-10-13T14:15:18;97113.63;;;22.50;50.08
62025;BME280;47978;49.118;12.146;2023-10-13T14:19:21;97107.63;;;22.59;50.42
62025;BME280;47978;49.118;12.146;2023-10-13T14:23:23;97094.97;;;23.15;47.91
62025;BME280;47978;49.118;12.146;2023-10-13T14:27:24;97091.00;;;23.55;47.26
62025;BME280;47978;49.118;12.146;2023-10-13T14:31:25;97097.84;;;23.26;50.80
62025;BME280;47978;49.118;12.146;2023-10-13T14:35:28;97083.59;;;22.94;54.46
62025;BME280;47978;49.118;12.146;2023-10-13T14:39:30;97083.28;;;23.06;53.53
62025;BME280;47978;49.118;12.146;2023-10-13T14:43:31;97073.16;;;22.94;52.98
62025;BME280;47978;49.118;12.146;2023-10-13T14:47:33;97071.03;;;22.73;55.00
62025;BME280;47978;49.118;12.146;2023-10-13T14:51:35;97057.25;;;22.43;56.41
62025;BME280;47978;49.118;12.146;2023-10-13T14:55:37;97054.88;;;22.59;51.15
62025;BME280;47978;49.118;12.146;2023-10-13T14:59:38;97058.66;;;22.96;48.95
62025;BME280;47978;49.118;12.146;2023-10-13T15:03:41;97057.88;;;23.02;50.23
62025;BME280;47978;49.118;12.146;2023-10-13T15:07:44;97055.47;;;22.97;50.13
62025;BME280;47978;49.118;12.146;2023-10-13T15:11:45;97050.97;;;22.89;50.30
62025;BME280;47978;49.118;12.146;2023-10-13T15:15:50;97047.22;;;22.53;52.67
62025;BME280;47978;49.118;12.146;2023-10-13T15:19:52;97036.91;;;22.09;58.01
62025;BME280;47978;49.118;12.146;2023-10-13T15:23:54;97041.84;;;21.23;63.90
62025;BME280;47978;49.118;12.146;2023-10-13T15:27:59;97038.41;;;20.99;63.87
62025;BME280;47978;49.118;12.146;2023-10-13T15:32:00;97032.78;;;20.99;64.23
62025;BME280;47978;49.118;12.146;2023-10-13T15:36:02;97027.28;;;21.14;63.23
62025;BME280;47978;49.118;12.146;2023-10-13T15:40:05;97028.53;;;21.16;61.77
62025;BME280;47978;49.118;12.146;2023-10-13T15:44:07;97021.63;;;20.69;64.86
62025;BME280;47978;49.118;12.146;2023-10-13T15:48:11;97018.13;;;19.85;71.18
62025;BME280;47978;49.118;12.146;2023-10-13T15:52:15;97018.75;;;19.25;77.07
62025;BME280;47978;49.118;12.146;2023-10-13T15:56:18;97016.09;;;18.67;81.71
62025;BME280;47978;49.118;12.146;2023-10-13T16:00:20;97016.88;;;18.25;84.67
62025;BME280;47978;49.118;12.146;2023-10-13T16:04:21;97011.41;;;17.93;87.13
62025;BME280;47978;49.118;12.146;2023-10-13T16:08:23;97003.97;;;17.82;87.89
62025;BME280;47978;49.118;12.146;2023-10-13T16:12:26;96995.91;;;17.45;90.32
62025;BME280;47978;49.118;12.146;2023-10-13T16:16:27;97005.09;;;17.29;91.56
62025;BME280;47978;49.118;12.146;2023-10-13T16:20:29;96998.34;;;16.99;93.56
62025;BME280;47978;49.118;12.146;2023-10-13T16:24:31;96999.16;;;16.83;94.69
62025;BME280;47978;49.118;12.146;2023-10-13T16:28:34;96993.72;;;16.75;95.23
62025;BME280;47978;49.118;12.146;2023-10-13T16:32:36;96995.53;;;16.39;96.90
62025;BME280;47978;49.118;12.146;2023-10-13T16:36:37;97000.94;;;16.32;96.75
62025;BME280;47978;49.118;12.146;2023-10-13T16:40:39;97004.06;;;16.02;97.97
62025;BME280;47978;49.118;12.146;2023-10-13T16:44:41;97000.16;;;16.19;96.74
62025;BME280;47978;49.118;12.146;2023-10-13T16:48:43;97005.09;;;16.10;97.03
62025;BME280;47978;49.118;12.146;2023-10-13T16:52:45;97006.94;;;15.65;99.46
62025;BME280;47978;49.118;12.146;2023-10-13T16:56:46;97002.31;;;15.69;98.76
62025;BME280;47978;49.118;12.146;2023-10-13T17:00:49;96999.06;;;15.43;100.00
62025;BME280;47978;49.118;12.146;2023-10-13T17:04:51;97005.34;;;15.40;100.00
62025;BME280;47978;49.118;12.146;2023-10-13T17:08:52;97001.75;;;15.15;100.00
62025;BME280;47978;49.118;12.146;2023-10-13T17:12:54;96994.91;;;15.12;100.00
62025;BME280;47978;49.118;12.146;2023-10-13T17:16:57;96991.53;;;15.06;100.00
62025;BME280;47978;49.118;12.146;2023-10-13T17:21:02;96999.19;;;14.97;100.00
62025;BME280;47978;49.118;12.146;2023-10-13T17:25:03;96993.97;;;14.83;100.00
62025;BME280;47978;49.118;12.146;2023-10-13T17:29:05;96999.16;;;14.73;100.00
62025;BME280;47978;49.118;12.146;2023-10-13T17:33:08;96994.28;;;14.82;100.00
62025;BME280;47978;49.118;12.146;2023-10-13T17:37:09;96990.59;;;14.78;100.00
62025;BME280;47978;49.118;12.146;2023-10-13T17:41:11;96988.94;;;14.65;100.00
62025;BME280;47978;49.118;12.146;2023-10-13T17:45:13;96993.00;;;14.55;100.00
62025;BME280;47978;49.118;12.146;2023-10-13T17:49:16;96991.66;;;14.40;100.00
62025;BME280;47978;49.118;12.146;2023-10-13T17:53:17;96983.97;;;14.37;100.00
62025;BME280;47978;49.118;12.146;2023-10-13T17:57:18;96996.94;;;14.33;100.00
62025;BME280;47978;49.118;12.146;2023-10-13T18:01:20;96989.50;;;14.25;100.00
62025;BME280;47978;49.118;12.146;2023-10-13T18:05:23;96989.50;;;14.25;100.00
62025;BME280;47978;49.118;12.146;2023-10-13T18:09:24;96986.72;;;14.25;100.00
62025;BME280;47978;49.118;12.146;2023-10-13T18:13:26;96981.84;;;14.22;100.00
62025;BME280;47978;49.118;12.146;2023-10-13T18:17:27;96973.78;;;14.29;100.00
62025;BME280;47978;49.118;12.146;2023-10-13T18:21:30;96972.25;;;14.31;100.00
62025;BME280;47978;49.118;12.146;2023-10-13T18:25:35;96973.25;;;14.14;100.00
62025;BME280;47978;49.118;12.146;2023-10-13T18:29:36;96964.97;;;14.06;100.00
62025;BME280;47978;49.118;12.146;2023-10-13T18:33:39;96961.00;;;14.28;99.26
62025;BME280;47978;49.118;12.146;2023-10-13T18:37:43;96961.19;;;14.10;100.00
62025;BME280;47978;49.118;12.146;2023-10-13T18:41:44;96966.03;;;14.34;98.00
62025;BME280;47978;49.118;12.146;2023-10-13T18:45:45;96956.66;;;14.51;97.10
62025;BME280;47978;49.118;12.146;2023-10-13T18:49:47;96954.38;;;14.66;95.03
62025;BME280;47978;49.118;12.146;2023-10-13T18:53:50;96962.09;;;14.48;97.09
62025;BME280;47978;49.118;12.146;2023-10-13T18:57:51;96960.81;;;14.45;97.48
62025;BME280;47978;49.118;12.146;2023-10-13T19:01:52;96956.75;;;14.43;96.66
62025;BME280;47978;49.118;12.146;2023-10-13T19:05:55;96952.44;;;14.33;97.95
62025;BME280;47978;49.118;12.146;2023-10-13T19:09:57;96954.97;;;14.26;97.58
62025;BME280;47978;49.118;12.146;2023-10-13T19:13:59;96952.97;;;14.14;99.14
62025;BME280;47978;49.118;12.146;2023-10-13T19:18:00;96952.22;;;13.92;100.00
62025;BME280;47978;49.118;12.146;2023-10-13T19:22:02;96949.63;;;13.87;100.00
62025;BME280;47978;49.118;12.146;2023-10-13T19:26:05;96949.50;;;13.84;100.00
62025;BME280;47978;49.118;12.146;2023-10-13T19:30:11;96943.53;;;13.73;100.00
62025;BME280;47978;49.118;12.146;2023-10-13T19:34:12;96948.28;;;13.72;100.00
62025;BME280;47978;49.118;12.146;2023-10-13T19:38:14;96939.53;;;13.83;100.00
62025;BME280;47978;49.118;12.146;2023-10-13T19:42:16;96948.22;;;13.81;100.00
62025;BME280;47978;49.118;12.146;2023-10-13T19:46:18;96935.91;;;13.70;100.00
62025;BME280;47978;49.118;12.146;2023-10-13T19:50:19;96933.94;;;13.49;100.00
62025;BME280;47978;49.118;12.146;2023-10-13T19:54:23;96940.50;;;13.45;100.00
62025;BME280;47978;49.118;12.146;2023-10-13T19:58:25;96942.88;;;13.34;100.00
62025;BME280;47978;49.118;12.146;2023-10-13T20:02:27;96948.63;;;13.29;100.00
62025;BME280;47978;49.118;12.146;2023-10-13T20:06:28;96949.28;;;13.26;100.00
62025;BME280;47978;49.118;12.146;2023-10-13T20:10:30;96949.31;;;13.17;100.00
62025;BME280;47978;49.118;12.146;2023-10-13T20:14:33;96952.81;;;13.05;100.00
62025;BME280;47978;49.118;12.146;2023-10-13T20:18:35;96956.31;;;12.94;100.00
62025;BME280;47978;49.118;12.146;2023-10-13T20:22:36;96943.25;;;12.94;100.00
62025;BME280;47978;49.118;12.146;2023-10-13T20:26:38;96939.66;;;12.94;100.00
62025;BME280;47978;49.118;12.146;2023-10-13T20:30:40;96938.25;;;13.09;100.00
62025;BME280;47978;49.118;12.146;2023-10-13T20:34:42;96937.19;;;13.01;100.00
62025;BME280;47978;49.118;12.146;2023-10-13T20:38:43;96940.16;;;13.25;100.00
62025;BME280;47978;49.118;12.146;2023-10-13T20:42:46;96936.69;;;12.99;100.00
62025;BME280;47978;49.118;12.146;2023-10-13T20:46:48;96938.91;;;12.85;100.00
62025;BME280;47978;49.118;12.146;2023-10-13T20:50:55;96920.28;;;12.85;100.00
62025;BME280;47978;49.118;12.146;2023-10-13T20:54:56;96920.47;;;12.80;100.00
62025;BME280;47978;49.118;12.146;2023-10-13T20:58:58;96911.28;;;12.88;100.00